WBGGWBGS

Guest
Details From WBGG - Kuching Intl
To WBGS - Sibu
Flight Number -
Tags Generated
Created
Modified
Stats Distance 109 nm / 202 km
Max Altitude 0 ft / 0 m
Waypoints 2
Social Downloads 4
Likes 0
Share VATSIM

Download

Looking for another format? Having issues loading an existing format? Contact us
Advertisement - Login to hide

Notes

Generated

Route

WBGG WBGS

ID Type Via Altitude Latitude Longitude Leg Dist Tot Dist Heading (true) Name
O WBGG APT - 0 ft / 0 m 1.48063˚ 110.33673˚ - 0 nm - -
O WBGS APT - 0 ft / 0 m 2.26965˚ 111.97588˚ 109 nm 109 nm 64° / 64° -

Altitude Profile

Advertisement - Login to hide

WBGG

Details ICAO WBGG (KCH)
Name Kuching Intl
Region Brunei and Malaysia
Timezone Asia/Kuching (UTC+8.0)
Stats Elevation 89 ft / 27 m (AMSL)
Location 1.484698° 110.346932°
Runways 1
Magnetic Variation 0.355° E

METAR

WBGG 160000Z VRB02KT 9999 FEW020 BKN300 25/23 Q1011 NOSIG

Decode

TAF

TAF WBGG 151700Z 1518/1618 32007KT 9999 FEW020 SCT150 BKN300 TEMPO 1607/1610 4000 SHRA FEW015CB SCT018 BKN150

Decode

Departure Runways

ID Width Length Bearing (true) Bearing (mag) Surface Threshold Offset Overrun Length
07 151 ft / 46 m 8,012 ft / 2,442 m 68.26° 67.90° Asphalt 0 ft / 0 m 0 ft / 0 m
25 151 ft / 46 m 8,012 ft / 2,442 m 248.26° 247.90° Asphalt 320 ft / 98 m 0 ft / 0 m

WBGS

Details ICAO WBGS (SBW)
Name Sibu
Region Brunei and Malaysia
Timezone Asia/Kuching (UTC+8.0)
Stats Elevation 122 ft / 37 m (AMSL)
Location 2.261603° 111.985324°
Runways 1
Magnetic Variation 0.238° E

METAR

WBGS 160000Z 13005KT 100V160 9999 FEW006 SCT150 BKN300 26/23 Q1011

Decode

TAF

Not found

Destination Runways

ID Width Length Bearing (true) Bearing (mag) Surface Threshold Offset Overrun Length
13 148 ft / 45 m 9,054 ft / 2,760 m 130.44° 130.20° Asphalt 0 ft / 0 m 190 ft / 58 m
31 148 ft / 45 m 9,054 ft / 2,760 m 310.44° 310.20° Asphalt 0 ft / 0 m 195 ft / 59 m

Approach Navaids

Runway Type Ident Frequency Range Bearing (true) Bearing (mag) Slope Elevation
13 Localiser ISU 110.50 MHz 18 nm / 33 km 129.63° 129.39° - 122 ft / 37 m (AMSL)
13 Glidescope ISU 110.50 MHz 10 nm / 19 km 130.44° 130.20° 3.00° 122 ft / 37 m (AMSL)
13 DME ISU 110.50 MHz 18 nm / 33 km - - - 122 ft / 37 m (AMSL)

Popular Alternatives